Warroad, MN

2:03 PM CDT on September 26, 2017 (GMT -0500)
Warroad International-Carlson

Weather History for KRRT - November, 2012

Change the Weather History Date:

Friday, November 9, 2012

  Actual Average Record
Temperature  
Mean Temperature 28 °F -  
Max Temperature 30 °F 35 °F 64 °F (2016)
Min Temperature 26 °F 20 °F 2 °F (1979)
Degree Days  
Heating Degree Days 37    
Moisture  
Dew Point 22 °F    
Average Humidity 78    
Maximum Humidity 93    
Minimum Humidity 64    
Precipitation  
Precipitation 0.00 in - - ()
Sea Level Pressure  
Sea Level Pressure 30.20 in    
Wind  
Wind Speed 13 mph (NE)    
Max Wind Speed 22 mph    
Max Gust Speed 28 mph    
Visibility 10 miles    
Events Snow    
Averages and records for this station are not official NWS values.
T = Trace of Precipitation, MM = Missing Value Source: NWS Daily Summary

Daily Weather History Graph

Daily Weather History Graph

Search for Another Location

Airport or City:

Trip Planner

Search our weather history database for the weather conditions in past years. The results will help you decide how hot, cold, wet, or windy it might be!

Date:

Astronomy

Nov. 09, 2012 Rise Set
Actual Time 7:22 AM CST 4:47 PM CST
Civil Twilight 6:48 AM CST 5:21 PM CST
Nautical Twilight 6:10 AM CST 5:59 PM CST
Astronomical Twilight 5:33 AM CST 6:36 PM CST
Moon 1:58 AM CST (11/9) 2:21 PM CST (11/9)
Length of Visible Light 10h 33m
Length of Day
9h 25m
Waning Crescent, 23% of the Moon is Illuminated
Nov 9
Waning Crescent
Nov 13
New
Nov 20
First Quarter
Nov 28
Full
Dec 6
Last Quarter

Hourly Weather History & Observations

Time (CST) Temp. Windchill Dew Point Humidity Pressure Visibility Wind Dir Wind Speed Gust Speed Precip Events Conditions
12:14 AM 30.2 °F 22.6 °F 24.8 °F 80% 30.21 in 10.0 mi North 8.1 mph - N/A   Overcast
12:34 AM 30.2 °F 21.9 °F 24.8 °F 80% 30.21 in 10.0 mi North 9.2 mph - N/A   Overcast
12:54 AM 28.4 °F 19.7 °F 24.8 °F 86% 30.21 in 10.0 mi North 9.2 mph - N/A   Overcast
1:14 AM 28.4 °F 18.0 °F 24.8 °F 86% 30.22 in 10.0 mi North 12.7 mph - N/A   Overcast
1:34 AM 28.4 °F 18.0 °F 24.8 °F 86% 30.22 in 10.0 mi NNW 12.7 mph - N/A   Overcast
1:54 AM 28.4 °F 18.0 °F 24.8 °F 86% 30.23 in 10.0 mi North 12.7 mph - N/A   Overcast
2:14 AM 26.6 °F 16.2 °F 23.0 °F 86% 30.23 in 10.0 mi North 11.5 mph - N/A   Overcast
2:34 AM 26.6 °F 16.8 °F 23.0 °F 86% 30.24 in 10.0 mi North 10.4 mph - N/A   Overcast
2:54 AM 26.6 °F 15.7 °F 23.0 °F 86% 30.24 in 10.0 mi North 12.7 mph - N/A   Overcast
3:14 AM 26.6 °F 18.2 °F 21.2 °F 80% 30.23 in 10.0 mi North 8.1 mph - N/A   Overcast
3:34 AM 26.6 °F 17.5 °F 21.2 °F 80% 30.23 in 10.0 mi North 9.2 mph - N/A   Overcast
3:54 AM 26.6 °F 16.2 °F 23.0 °F 86% 30.23 in 10.0 mi North 11.5 mph - N/A   Overcast
4:14 AM 26.6 °F 16.8 °F 23.0 °F 86% 30.23 in 10.0 mi North 10.4 mph - N/A   Overcast
4:34 AM 26.6 °F 17.5 °F 23.0 °F 86% 30.22 in 10.0 mi NNE 9.2 mph - N/A   Overcast
4:54 AM 26.6 °F 16.2 °F 23.0 °F 86% 30.23 in 10.0 mi North 11.5 mph 18.4 mph N/A   Overcast
5:14 AM 26.6 °F 15.7 °F 23.0 °F 86% 30.23 in 10.0 mi North 12.7 mph 18.4 mph N/A   Overcast
5:54 AM 28.4 °F 18.0 °F 23.0 °F 80% 30.22 in 10.0 mi NNE 12.7 mph 19.6 mph N/A   Overcast
6:14 AM 28.4 °F 18.5 °F 23.0 °F 80% 30.23 in 10.0 mi NNE 11.5 mph - N/A   Overcast
6:34 AM 26.6 °F 15.7 °F 21.2 °F 80% 30.22 in 10.0 mi North 12.7 mph - N/A   Overcast
6:54 AM 26.6 °F 15.7 °F 21.2 °F 80% 30.21 in 10.0 mi NNE 12.7 mph - N/A   Overcast
7:14 AM 26.6 °F 17.5 °F 23.0 °F 86% 30.22 in 10.0 mi NE 9.2 mph - N/A   Overcast
7:34 AM 26.6 °F 16.2 °F 23.0 °F 86% 30.22 in 10.0 mi NNE 11.5 mph 18.4 mph N/A   Overcast
7:54 AM 28.4 °F 17.5 °F 23.0 °F 80% 30.23 in 10.0 mi North 13.8 mph - N/A   Overcast
8:14 AM 26.6 °F 16.2 °F 23.0 °F 86% 30.22 in 10.0 mi NNE 11.5 mph 17.3 mph N/A   Overcast
8:34 AM 28.4 °F 19.1 °F 24.8 °F 86% 30.22 in 10.0 mi NE 10.4 mph - N/A   Overcast
8:54 AM 26.6 °F 15.7 °F 23.0 °F 86% 30.23 in 2.0 mi NNE 12.7 mph - N/A Snow Light Snow
9:14 AM 26.6 °F 15.2 °F 24.8 °F 93% 30.23 in 10.0 mi NNE 13.8 mph 18.4 mph N/A   Overcast
9:34 AM 26.6 °F 16.2 °F 23.0 °F 86% 30.24 in 4.0 mi NE 11.5 mph - N/A   Overcast
9:54 AM 28.4 °F 17.0 °F 23.0 °F 80% 30.24 in 10.0 mi NE 15.0 mph 21.9 mph N/A   Overcast
10:14 AM 28.4 °F 17.5 °F 23.0 °F 80% 30.25 in 10.0 mi NE 13.8 mph 19.6 mph N/A   Overcast
10:34 AM 28.4 °F 17.5 °F 23.0 °F 80% 30.24 in 10.0 mi NE 13.8 mph 20.7 mph N/A   Overcast
10:54 AM 28.4 °F 18.0 °F 24.8 °F 86% 30.24 in 10.0 mi NE 12.7 mph 18.4 mph N/A   Overcast
11:14 AM 28.4 °F 18.0 °F 24.8 °F 86% 30.24 in 10.0 mi NE 12.7 mph 19.6 mph N/A   Overcast
11:34 AM 28.4 °F 17.5 °F 24.8 °F 86% 30.23 in 10.0 mi NE 13.8 mph 19.6 mph N/A   Overcast
11:54 AM 28.4 °F 19.1 °F 24.8 °F 86% 30.23 in 10.0 mi NE 10.4 mph - N/A   Overcast
12:14 PM 28.4 °F 17.5 °F 23.0 °F 80% 30.22 in 10.0 mi NNE 13.8 mph 20.7 mph N/A   Overcast
12:34 PM 28.4 °F 16.2 °F 23.0 °F 80% 30.22 in 10.0 mi NE 17.3 mph - N/A   Overcast
12:54 PM 28.4 °F 17.0 °F 23.0 °F 80% 30.21 in 10.0 mi NE 15.0 mph - N/A   Overcast
1:14 PM 28.4 °F 17.5 °F 23.0 °F 80% 30.21 in 10.0 mi NE 13.8 mph 23.0 mph N/A   Overcast
1:34 PM 28.4 °F 17.0 °F 23.0 °F 80% 30.21 in 10.0 mi NE 15.0 mph 21.9 mph N/A   Overcast
1:54 PM 28.4 °F 18.5 °F 23.0 °F 80% 30.20 in 10.0 mi NE 11.5 mph 20.7 mph N/A   Overcast
2:14 PM 28.4 °F 16.6 °F 23.0 °F 80% 30.20 in 10.0 mi NE 16.1 mph 21.9 mph N/A   Overcast
2:33 PM 28.4 °F 17.0 °F 23.0 °F 80% 30.18 in 10.0 mi NE 15.0 mph 21.9 mph N/A   Overcast
2:54 PM 28.4 °F 16.2 °F 21.2 °F 74% 30.19 in 10.0 mi NE 17.3 mph 23.0 mph N/A   Overcast
3:14 PM 28.4 °F 17.5 °F 21.2 °F 74% 30.18 in 10.0 mi NE 13.8 mph 21.9 mph N/A   Overcast
3:33 PM 28.4 °F 15.8 °F 21.2 °F 74% 30.18 in 10.0 mi NE 18.4 mph 25.3 mph N/A   Overcast
3:54 PM 28.4 °F 16.2 °F 21.2 °F 74% 30.18 in 10.0 mi ENE 17.3 mph 23.0 mph N/A   Overcast
4:14 PM 28.4 °F 15.8 °F 21.2 °F 74% 30.18 in 10.0 mi ENE 18.4 mph - N/A   Overcast
4:33 PM 28.4 °F 15.8 °F 21.2 °F 74% 30.17 in 10.0 mi NE 18.4 mph 23.0 mph N/A   Overcast
4:54 PM 28.4 °F 16.2 °F 21.2 °F 74% 30.19 in 10.0 mi ENE 17.3 mph 21.9 mph N/A   Overcast
5:14 PM 28.4 °F 16.2 °F 19.4 °F 69% 30.18 in 10.0 mi ENE 17.3 mph - N/A   Overcast
5:34 PM 28.4 °F 16.2 °F 21.2 °F 74% 30.18 in 10.0 mi ENE 17.3 mph 25.3 mph N/A   Overcast
5:54 PM 28.4 °F 15.8 °F 19.4 °F 69% 30.18 in 10.0 mi ENE 18.4 mph 24.2 mph N/A   Overcast
6:13 PM 28.4 °F 17.5 °F 21.2 °F 74% 30.17 in 10.0 mi ENE 13.8 mph 23.0 mph N/A   Overcast
6:34 PM 28.4 °F 16.6 °F 19.4 °F 69% 30.17 in 10.0 mi ENE 16.1 mph 24.2 mph N/A   Overcast
6:54 PM 28.4 °F 15.8 °F 21.2 °F 74% 30.16 in 10.0 mi ENE 18.4 mph 27.6 mph N/A   Overcast
7:13 PM 30.2 °F 17.8 °F 19.4 °F 64% 30.15 in 10.0 mi ENE 19.6 mph 23.0 mph N/A   Overcast
7:34 PM 28.4 °F 14.7 °F 19.4 °F 69% 30.14 in 10.0 mi ENE 21.9 mph 25.3 mph N/A   Overcast
7:54 PM 28.4 °F 15.8 °F 19.4 °F 69% 30.14 in 10.0 mi ENE 18.4 mph 25.3 mph N/A   Overcast
8:13 PM 28.4 °F 15.4 °F 19.4 °F 69% 30.15 in 10.0 mi ENE 19.6 mph 23.0 mph N/A   Overcast
8:34 PM 28.4 °F 15.8 °F 19.4 °F 69% 30.14 in 10.0 mi East 18.4 mph 24.2 mph N/A   Overcast
9:13 PM 28.4 °F 15.8 °F 19.4 °F 69% 30.13 in 10.0 mi East 18.4 mph 26.5 mph N/A   Overcast
9:34 PM 28.4 °F 16.2 °F 19.4 °F 69% 30.14 in 10.0 mi ENE 17.3 mph 26.5 mph N/A   Overcast
9:54 PM 28.4 °F 14.7 °F 19.4 °F 69% 30.13 in 10.0 mi East 21.9 mph 26.5 mph N/A   Overcast
10:13 PM 28.4 °F 17.0 °F 19.4 °F 69% 30.12 in 10.0 mi East 15.0 mph - N/A   Overcast
10:34 PM 28.4 °F 16.6 °F 19.4 °F 69% 30.12 in 10.0 mi East 16.1 mph 26.5 mph N/A   Overcast
10:54 PM 28.4 °F 15.1 °F 19.4 °F 69% 30.10 in 10.0 mi East 20.7 mph 27.6 mph N/A   Mostly Cloudy
11:13 PM 28.4 °F 16.2 °F 19.4 °F 69% 30.11 in 10.0 mi East 17.3 mph 25.3 mph N/A   Mostly Cloudy
11:34 PM 28.4 °F 15.8 °F 19.4 °F 69% 30.10 in 10.0 mi East 18.4 mph 24.2 mph N/A   Scattered Clouds
11:54 PM 28.4 °F 16.2 °F 19.4 °F 69% 30.09 in 10.0 mi East 17.3 mph 25.3 mph N/A   Overcast